Serenissima — J8B4685 — position and weather

sailwx.info

Track history (hours):
 
Tides and Currents Weather Stations Pressure Air Temp Water Temp Dewpoint Dewpoint Depression Visibility Wind Speed Wind Dir Waves Ship Positions

Serenissima

Last reported at 2018-Jun-19 06:58 UTC. Time now 2018-Jun-19 06:57 UTC.
Position N 58°59' W 002°58'.

Length 87 m; draft 4.9 m.

Type: Passenger vessel. MMSI: 376439000.

Date/timePositionNaut miles runAvg speedWind from/ knotsBaromVisibWave heightAir tempDewpointWater temp
2018-Jun-19 06:58N 58°59' W 002°58'0 0.0
2018-Jun-19 06:28N 58°59' W 002°58'0 0.0
2018-Jun-19 05:58N 58°59' W 002°58'0 0.0
2018-Jun-19 05:28N 58°59' W 002°58'0 0.0
2018-Jun-19 04:58N 58°59' W 002°58'0 0.0
2018-Jun-19 04:28N 58°59' W 002°58'0 0.0
2018-Jun-19 03:58N 58°59' W 002°58'0 0.0
2018-Jun-19 03:28N 58°59' W 002°58'0 0.0
2018-Jun-19 02:58N 58°59' W 002°58'0 0.0
2018-Jun-19 02:28N 58°59' W 002°58'0 0.0
2018-Jun-19 01:58N 58°59' W 002°58'0 0.0
2018-Jun-19 01:28N 58°59' W 002°58'0 0.0
2018-Jun-19 00:58N 58°59' W 002°58'0 0.0
2018-Jun-19 00:28N 58°59' W 002°58'0 0.0
2018-Jun-18 23:58N 58°59' W 002°58'0 0.0
2018-Jun-18 23:28N 58°59' W 002°58'0 0.0
2018-Jun-18 22:58N 58°59' W 002°58'0 0.0
2018-Jun-18 22:28N 58°59' W 002°58'0 0.0
2018-Jun-18 21:58N 58°59' W 002°58'0 0.0
2018-Jun-18 21:28N 58°59' W 002°58'0 0.0
2018-Jun-18 20:58N 58°59' W 002°58'0 0.0
2018-Jun-18 20:28N 58°59' W 002°58'0 0.0
2018-Jun-18 19:58N 58°59' W 002°58'0 0.0
2018-Jun-18 19:28N 58°59' W 002°58'0 0.0
2018-Jun-18 18:58N 58°59' W 002°58'0 0.0
2018-Jun-18 18:28N 58°59' W 002°58'0 0.0
2018-Jun-18 17:58N 58°59' W 002°58'0 0.0
2018-Jun-18 17:28N 58°59' W 002°58'0 0.0
2018-Jun-18 16:58N 58°59' W 002°58'0 0.0
2018-Jun-18 16:28N 58°59' W 002°58'0 0.0
2018-Jun-18 15:58N 58°59' W 002°58'0 0.0
2018-Jun-18 15:28N 58°59' W 002°58'0 0.0
2018-Jun-18 14:58N 58°59' W 002°58'0 0.0
2018-Jun-18 14:28N 58°59' W 002°58'0 0.0
2018-Jun-18 13:58N 58°59' W 002°58'0 0.0
2018-Jun-18 13:28N 58°59' W 002°58'0 0.0
2018-Jun-18 12:58N 58°59' W 002°58'0 0.0
2018-Jun-18 12:30N 58°59' W 002°58'2 3.1
2018-Jun-18 12:00N 59°01' W 002°57'4 7.7
2018-Jun-18 11:30N 59°00' W 002°50'510.2
2018-Jun-18 11:00N 58°59' W 002°40'611.0
2018-Jun-18 10:28N 58°53' W 002°39'613.8
2018-Jun-18 10:00N 58°48' W 002°47'714.0
2018-Jun-18 09:30N 58°43' W 002°56'611.7
2018-Jun-18 09:00N 58°48' W 003°03'611.9
2018-Jun-18 08:29N 58°54' W 003°07'711.7
2018-Jun-18 07:55N 58°57' W 003°17'0 0.1
2018-Jun-18 06:05N 58°57' W 003°17'0 6.1
2018-Jun-18 06:00N 58°57' W 003°18'  
2018-Jun-14 15:02N 57°08' W 005°39'211.5
2018-Jun-14 14:49N 57°07' W 005°35'1 0.3
2018-Jun-14 10:16N 57°06' W 005°33'0 0.0
2018-Jun-14 09:52N 57°06' W 005°33'0 0.0
2018-Jun-14 09:16N 57°06' W 005°33'0 0.0
2018-Jun-14 08:37N 57°06' W 005°33'0 0.0
2018-Jun-14 08:07N 57°06' W 005°33'0 0.0
2018-Jun-14 07:07N 57°06' W 005°33'0 0.0
2018-Jun-14 04:49N 57°06' W 005°33'0 0.3
2018-Jun-14 04:25N 57°06' W 005°33'0 0.1
2018-Jun-14 03:55N 57°06' W 005°33'0 0.1
2018-Jun-14 03:28N 57°06' W 005°33'0 0.1
2018-Jun-14 02:46N 57°06' W 005°33'0 0.0
2018-Jun-14 01:43N 57°06' W 005°33'0 0.2
2018-Jun-14 01:25N 57°06' W 005°33'0 0.0
2018-Jun-14 00:49N 57°06' W 005°33'0 0.0
2018-Jun-13 23:10N 57°06' W 005°33'0 0.0
2018-Jun-13 22:55N 57°06' W 005°33'0 0.0
2018-Jun-13 22:25N 57°06' W 005°33'0 0.0
2018-Jun-13 21:13N 57°06' W 005°33'0 0.1
2018-Jun-13 20:55N 57°06' W 005°33'0 0.5
2018-Jun-13 20:19N 57°06' W 005°33'3 7.5
2018-Jun-13 19:53N 57°08' W 005°38'82 4.4
2018-Jun-13 01:16N 55°52' W 006°35'2 7.2
2018-Jun-13 01:00N 55°50' W 006°36'3 6.9
2018-Jun-13 00:30N 55°47' W 006°37'4 7.9
2018-Jun-13 00:00N 55°43' W 006°37'5 9.3
2018-Jun-12 23:30N 55°39' W 006°35'4 7.7
2018-Jun-12 23:00N 55°36' W 006°29'4 7.7
2018-Jun-12 22:30N 55°34' W 006°24'4 7.2
2018-Jun-12 22:00N 55°33' W 006°18'4 7.8
2018-Jun-12 21:30N 55°34' W 006°11'3 5.6
2018-Jun-12 20:57N 55°37' W 006°08'0 0.0
2018-Jun-12 20:27N 55°37' W 006°08'0 0.0
2018-Jun-12 19:57N 55°37' W 006°08'0 0.0
2018-Jun-12 19:24N 55°37' W 006°08'0 0.0
2018-Jun-12 19:00N 55°37' W 006°08'0 0.0
2018-Jun-12 18:30N 55°37' W 006°08'0 0.0
2018-Jun-12 18:00N 55°37' W 006°08'0 0.0
2018-Jun-12 17:30N 55°37' W 006°08'0 0.0
2018-Jun-12 17:00N 55°37' W 006°08'0 0.1
2018-Jun-12 16:30N 55°37' W 006°08'0 0.0
2018-Jun-12 16:00N 55°37' W 006°08'0 0.0
2018-Jun-12 15:30N 55°37' W 006°08'0 0.0
2018-Jun-12 15:00N 55°37' W 006°08'0 0.0
2018-Jun-12 14:30N 55°37' W 006°08'0 0.0
2018-Jun-12 14:00N 55°37' W 006°08'0 0.0
2018-Jun-12 13:30N 55°37' W 006°08'1 1.5
2018-Jun-12 13:00N 55°36' W 006°07'612.5
2018-Jun-12 12:30N 55°36' W 005°56'612.7
2018-Jun-12 12:00N 55°36' W 005°44'4 4.4
2018-Jun-12 11:01N 55°41' W 005°43'0 0.0
2018-Jun-12 06:48N 55°41' W 005°43'0 0.0
2018-Jun-12 06:18N 55°41' W 005°43'1 2.3
2018-Jun-12 06:00N 55°40' W 005°42'4 7.3
2018-Jun-12 05:30N 55°37' W 005°44'4 7.8
2018-Jun-12 05:00N 55°35' W 005°51'4 8.2
2018-Jun-12 04:30N 55°35' W 005°58'4 8.1
2018-Jun-12 04:00N 55°34' W 006°05'4 8.2
2018-Jun-12 03:30N 55°33' W 006°12'4 8.6
2018-Jun-12 03:00N 55°32' W 006°19'4 9.0
2018-Jun-12 02:30N 55°35' W 006°25'510.4
2018-Jun-12 02:00N 55°39' W 006°32'4 7.9
2018-Jun-12 01:30N 55°42' W 006°34'4 8.3
2018-Jun-12 01:00N 55°47' W 006°34'47 8.3
2018-Jun-11 19:25N 56°22' W 005°40'4 9.7
2018-Jun-11 19:00N 56°25' W 005°35'3 0.2
2018-Jun-11 05:09N 56°25' W 005°29'1 4.3
2018-Jun-11 05:00N 56°25' W 005°29'3 6.5
2018-Jun-11 04:31N 56°26' W 005°35'4 6.5
2018-Jun-11 03:53N 56°29' W 005°41'  
Track history (hours):
 
Tides and Currents Weather Stations Pressure Air Temp Water Temp Dewpoint Dewpoint Depression Visibility Wind Speed Wind Dir Waves Ship Positions

Serenissima

Last reported at 2018-Jun-19 06:58 UTC. Time now 2018-Jun-19 06:57 UTC.
Position N 58°59' W 002°58'.

Length 87 m; draft 4.9 m.

Type: Passenger vessel. MMSI: 376439000.

Date/timePositionNaut miles runAvg speedWind from/ knotsBaromVisibWave heightAir tempDewpointWater temp
2018-Jun-19 06:58N 58°59' W 002°58'0 0.0
2018-Jun-19 06:28N 58°59' W 002°58'0 0.0
2018-Jun-19 05:58N 58°59' W 002°58'0 0.0
2018-Jun-19 05:28N 58°59' W 002°58'0 0.0
2018-Jun-19 04:58N 58°59' W 002°58'0 0.0
2018-Jun-19 04:28N 58°59' W 002°58'0 0.0
2018-Jun-19 03:58N 58°59' W 002°58'0 0.0
2018-Jun-19 03:28N 58°59' W 002°58'0 0.0
2018-Jun-19 02:58N 58°59' W 002°58'0 0.0
2018-Jun-19 02:28N 58°59' W 002°58'0 0.0
2018-Jun-19 01:58N 58°59' W 002°58'0 0.0
2018-Jun-19 01:28N 58°59' W 002°58'0 0.0
2018-Jun-19 00:58N 58°59' W 002°58'0 0.0
2018-Jun-19 00:28N 58°59' W 002°58'0 0.0
2018-Jun-18 23:58N 58°59' W 002°58'0 0.0
2018-Jun-18 23:28N 58°59' W 002°58'0 0.0
2018-Jun-18 22:58N 58°59' W 002°58'0 0.0
2018-Jun-18 22:28N 58°59' W 002°58'0 0.0
2018-Jun-18 21:58N 58°59' W 002°58'0 0.0
2018-Jun-18 21:28N 58°59' W 002°58'0 0.0
2018-Jun-18 20:58N 58°59' W 002°58'0 0.0
2018-Jun-18 20:28N 58°59' W 002°58'0 0.0
2018-Jun-18 19:58N 58°59' W 002°58'0 0.0
2018-Jun-18 19:28N 58°59' W 002°58'0 0.0
2018-Jun-18 18:58N 58°59' W 002°58'0 0.0
2018-Jun-18 18:28N 58°59' W 002°58'0 0.0
2018-Jun-18 17:58N 58°59' W 002°58'0 0.0
2018-Jun-18 17:28N 58°59' W 002°58'0 0.0
2018-Jun-18 16:58N 58°59' W 002°58'0 0.0
2018-Jun-18 16:28N 58°59' W 002°58'0 0.0
2018-Jun-18 15:58N 58°59' W 002°58'0 0.0
2018-Jun-18 15:28N 58°59' W 002°58'0 0.0
2018-Jun-18 14:58N 58°59' W 002°58'0 0.0
2018-Jun-18 14:28N 58°59' W 002°58'0 0.0
2018-Jun-18 13:58N 58°59' W 002°58'0 0.0
2018-Jun-18 13:28N 58°59' W 002°58'0 0.0
2018-Jun-18 12:58N 58°59' W 002°58'0 0.0
2018-Jun-18 12:30N 58°59' W 002°58'2 3.1
2018-Jun-18 12:00N 59°01' W 002°57'4 7.7
2018-Jun-18 11:30N 59°00' W 002°50'510.2
2018-Jun-18 11:00N 58°59' W 002°40'611.0
2018-Jun-18 10:28N 58°53' W 002°39'613.8
2018-Jun-18 10:00N 58°48' W 002°47'714.0
2018-Jun-18 09:30N 58°43' W 002°56'611.7
2018-Jun-18 09:00N 58°48' W 003°03'611.9
2018-Jun-18 08:29N 58°54' W 003°07'711.7
2018-Jun-18 07:55N 58°57' W 003°17'0 0.1
2018-Jun-18 06:05N 58°57' W 003°17'0 6.1
2018-Jun-18 06:00N 58°57' W 003°18'  
2018-Jun-14 15:02N 57°08' W 005°39'211.5
2018-Jun-14 14:49N 57°07' W 005°35'1 0.3
2018-Jun-14 10:16N 57°06' W 005°33'0 0.0
2018-Jun-14 09:52N 57°06' W 005°33'0 0.0
2018-Jun-14 09:16N 57°06' W 005°33'0 0.0
2018-Jun-14 08:37N 57°06' W 005°33'0 0.0
2018-Jun-14 08:07N 57°06' W 005°33'0 0.0
2018-Jun-14 07:07N 57°06' W 005°33'0 0.0
2018-Jun-14 04:49N 57°06' W 005°33'0 0.3
2018-Jun-14 04:25N 57°06' W 005°33'0 0.1
2018-Jun-14 03:55N 57°06' W 005°33'0 0.1
2018-Jun-14 03:28N 57°06' W 005°33'0 0.1
2018-Jun-14 02:46N 57°06' W 005°33'0 0.0
2018-Jun-14 01:43N 57°06' W 005°33'0 0.2
2018-Jun-14 01:25N 57°06' W 005°33'0 0.0
2018-Jun-14 00:49N 57°06' W 005°33'0 0.0
2018-Jun-13 23:10N 57°06' W 005°33'0 0.0
2018-Jun-13 22:55N 57°06' W 005°33'0 0.0
2018-Jun-13 22:25N 57°06' W 005°33'0 0.0
2018-Jun-13 21:13N 57°06' W 005°33'0 0.1
2018-Jun-13 20:55N 57°06' W 005°33'0 0.5
2018-Jun-13 20:19N 57°06' W 005°33'3 7.5
2018-Jun-13 19:53N 57°08' W 005°38'82 4.4
2018-Jun-13 01:16N 55°52' W 006°35'2 7.2
2018-Jun-13 01:00N 55°50' W 006°36'3 6.9
2018-Jun-13 00:30N 55°47' W 006°37'4 7.9
2018-Jun-13 00:00N 55°43' W 006°37'5 9.3
2018-Jun-12 23:30N 55°39' W 006°35'4 7.7
2018-Jun-12 23:00N 55°36' W 006°29'4 7.7
2018-Jun-12 22:30N 55°34' W 006°24'4 7.2
2018-Jun-12 22:00N 55°33' W 006°18'4 7.8
2018-Jun-12 21:30N 55°34' W 006°11'3 5.6
2018-Jun-12 20:57N 55°37' W 006°08'0 0.0
2018-Jun-12 20:27N 55°37' W 006°08'0 0.0
2018-Jun-12 19:57N 55°37' W 006°08'0 0.0
2018-Jun-12 19:24N 55°37' W 006°08'0 0.0
2018-Jun-12 19:00N 55°37' W 006°08'0 0.0
2018-Jun-12 18:30N 55°37' W 006°08'0 0.0
2018-Jun-12 18:00N 55°37' W 006°08'0 0.0
2018-Jun-12 17:30N 55°37' W 006°08'0 0.0
2018-Jun-12 17:00N 55°37' W 006°08'0 0.1
2018-Jun-12 16:30N 55°37' W 006°08'0 0.0
2018-Jun-12 16:00N 55°37' W 006°08'0 0.0
2018-Jun-12 15:30N 55°37' W 006°08'0 0.0
2018-Jun-12 15:00N 55°37' W 006°08'0 0.0
2018-Jun-12 14:30N 55°37' W 006°08'0 0.0
2018-Jun-12 14:00N 55°37' W 006°08'0 0.0
2018-Jun-12 13:30N 55°37' W 006°08'1 1.5
2018-Jun-12 13:00N 55°36' W 006°07'612.5
2018-Jun-12 12:30N 55°36' W 005°56'612.7
2018-Jun-12 12:00N 55°36' W 005°44'4 4.4
2018-Jun-12 11:01N 55°41' W 005°43'0 0.0
2018-Jun-12 06:48N 55°41' W 005°43'0 0.0
2018-Jun-12 06:18N 55°41' W 005°43'1 2.3
2018-Jun-12 06:00N 55°40' W 005°42'4 7.3
2018-Jun-12 05:30N 55°37' W 005°44'4 7.8
2018-Jun-12 05:00N 55°35' W 005°51'4 8.2
2018-Jun-12 04:30N 55°35' W 005°58'4 8.1
2018-Jun-12 04:00N 55°34' W 006°05'4 8.2
2018-Jun-12 03:30N 55°33' W 006°12'4 8.6
2018-Jun-12 03:00N 55°32' W 006°19'4 9.0
2018-Jun-12 02:30N 55°35' W 006°25'510.4
2018-Jun-12 02:00N 55°39' W 006°32'4 7.9
2018-Jun-12 01:30N 55°42' W 006°34'4 8.3
2018-Jun-12 01:00N 55°47' W 006°34'47 8.3
2018-Jun-11 19:25N 56°22' W 005°40'4 9.7
2018-Jun-11 19:00N 56°25' W 005°35'3 0.2
2018-Jun-11 05:09N 56°25' W 005°29'1 4.3
2018-Jun-11 05:00N 56°25' W 005°29'3 6.5
2018-Jun-11 04:31N 56°26' W 005°35'4 6.5
2018-Jun-11 03:53N 56°29' W 005°41'  

Dump ship's entire track history